sensor_id;sensor_type;location;lat;lon;timestamp;P1;durP1;ratioP1;P2;durP2;ratioP2
22127;SDS011;11230;50.854;6.454;2023-06-01T00:02:37;0.50;;;0.40;;
22127;SDS011;11230;50.854;6.454;2023-06-01T00:07:20;2.05;;;0.60;;
22127;SDS011;11230;50.854;6.454;2023-06-01T00:12:04;0.40;;;0.40;;
22127;SDS011;11230;50.854;6.454;2023-06-01T00:16:45;0.22;;;0.22;;
22127;SDS011;11230;50.854;6.454;2023-06-01T00:21:27;0.85;;;0.82;;
22127;SDS011;11230;50.854;6.454;2023-06-01T00:26:10;0.35;;;0.35;;
22127;SDS011;11230;50.854;6.454;2023-06-01T00:30:51;0.73;;;0.52;;
22127;SDS011;11230;50.854;6.454;2023-06-01T00:35:33;6.07;;;1.02;;
22127;SDS011;11230;50.854;6.454;2023-06-01T00:40:14;0.32;;;0.32;;
22127;SDS011;11230;50.854;6.454;2023-06-01T00:44:57;0.55;;;0.55;;
22127;SDS011;11230;50.854;6.454;2023-06-01T00:49:40;1.00;;;0.45;;
22127;SDS011;11230;50.854;6.454;2023-06-01T00:54:21;0.50;;;0.50;;
22127;SDS011;11230;50.854;6.454;2023-06-01T00:59:02;0.25;;;0.25;;
22127;SDS011;11230;50.854;6.454;2023-06-01T01:03:46;0.68;;;0.45;;
22127;SDS011;11230;50.854;6.454;2023-06-01T01:08:31;0.38;;;0.38;;
22127;SDS011;11230;50.854;6.454;2023-06-01T01:13:18;0.30;;;0.30;;
22127;SDS011;11230;50.854;6.454;2023-06-01T01:18:02;0.38;;;0.38;;
22127;SDS011;11230;50.854;6.454;2023-06-01T01:22:55;0.40;;;0.40;;
22127;SDS011;11230;50.854;6.454;2023-06-01T01:27:45;0.25;;;0.25;;
22127;SDS011;11230;50.854;6.454;2023-06-01T01:32:30;0.20;;;0.20;;
22127;SDS011;11230;50.854;6.454;2023-06-01T01:37:11;0.30;;;0.30;;
22127;SDS011;11230;50.854;6.454;2023-06-01T01:41:52;0.40;;;0.30;;
22127;SDS011;11230;50.854;6.454;2023-06-01T01:46:36;0.20;;;0.20;;
22127;SDS011;11230;50.854;6.454;2023-06-01T01:51:24;2.03;;;0.22;;
22127;SDS011;11230;50.854;6.454;2023-06-01T01:56:08;0.15;;;0.15;;
22127;SDS011;11230;50.854;6.454;2023-06-01T02:00:50;0.35;;;0.32;;
22127;SDS011;11230;50.854;6.454;2023-06-01T02:05:32;0.30;;;0.30;;
22127;SDS011;11230;50.854;6.454;2023-06-01T02:10:15;0.75;;;0.73;;
22127;SDS011;11230;50.854;6.454;2023-06-01T02:14:57;0.57;;;0.57;;
22127;SDS011;11230;50.854;6.454;2023-06-01T02:19:38;0.65;;;0.65;;
22127;SDS011;11230;50.854;6.454;2023-06-01T02:24:19;0.95;;;0.50;;
22127;SDS011;11230;50.854;6.454;2023-06-01T02:29:03;1.10;;;0.55;;
22127;SDS011;11230;50.854;6.454;2023-06-01T02:33:45;1.45;;;0.60;;
22127;SDS011;11230;50.854;6.454;2023-06-01T02:38:26;0.25;;;0.22;;
22127;SDS011;11230;50.854;6.454;2023-06-01T02:43:08;0.30;;;0.30;;
22127;SDS011;11230;50.854;6.454;2023-06-01T02:47:51;0.20;;;0.20;;
22127;SDS011;11230;50.854;6.454;2023-06-01T02:52:32;0.68;;;0.60;;
22127;SDS011;11230;50.854;6.454;2023-06-01T02:57:15;0.20;;;0.20;;
22127;SDS011;11230;50.854;6.454;2023-06-01T03:01:56;0.80;;;0.20;;
22127;SDS011;11230;50.854;6.454;2023-06-01T03:06:39;0.80;;;0.75;;
22127;SDS011;11230;50.854;6.454;2023-06-01T03:11:21;0.57;;;0.20;;
22127;SDS011;11230;50.854;6.454;2023-06-01T03:16:03;0.63;;;0.40;;
22127;SDS011;11230;50.854;6.454;2023-06-01T03:20:44;0.43;;;0.40;;
22127;SDS011;11230;50.854;6.454;2023-06-01T03:25:29;0.25;;;0.25;;
22127;SDS011;11230;50.854;6.454;2023-06-01T03:30:10;0.30;;;0.30;;
22127;SDS011;11230;50.854;6.454;2023-06-01T03:34:51;0.35;;;0.35;;
22127;SDS011;11230;50.854;6.454;2023-06-01T03:39:33;1.17;;;0.63;;
22127;SDS011;11230;50.854;6.454;2023-06-01T03:44:17;1.60;;;0.95;;
22127;SDS011;11230;50.854;6.454;2023-06-01T03:48:58;0.82;;;0.82;;
22127;SDS011;11230;50.854;6.454;2023-06-01T03:53:39;0.93;;;0.90;;
22127;SDS011;11230;50.854;6.454;2023-06-01T03:58:21;1.60;;;0.50;;
22127;SDS011;11230;50.854;6.454;2023-06-01T04:03:05;2.00;;;0.70;;
22127;SDS011;11230;50.854;6.454;2023-06-01T04:07:47;1.42;;;0.68;;
22127;SDS011;11230;50.854;6.454;2023-06-01T04:12:29;2.83;;;0.52;;
22127;SDS011;11230;50.854;6.454;2023-06-01T04:17:10;0.88;;;0.77;;
22127;SDS011;11230;50.854;6.454;2023-06-01T04:21:53;0.95;;;0.50;;
22127;SDS011;11230;50.854;6.454;2023-06-01T04:26:35;0.93;;;0.93;;
22127;SDS011;11230;50.854;6.454;2023-06-01T04:31:16;3.58;;;0.82;;
22127;SDS011;11230;50.854;6.454;2023-06-01T04:35:58;0.85;;;0.80;;
22127;SDS011;11230;50.854;6.454;2023-06-01T04:40:42;0.55;;;0.55;;
22127;SDS011;11230;50.854;6.454;2023-06-01T04:45:25;0.77;;;0.63;;
22127;SDS011;11230;50.854;6.454;2023-06-01T04:50:07;1.15;;;1.00;;
22127;SDS011;11230;50.854;6.454;2023-06-01T04:54:49;0.70;;;0.70;;
22127;SDS011;11230;50.854;6.454;2023-06-01T04:59:32;1.52;;;0.80;;
22127;SDS011;11230;50.854;6.454;2023-06-01T05:04:14;4.32;;;2.78;;
22127;SDS011;11230;50.854;6.454;2023-06-01T05:08:55;3.60;;;1.90;;
22127;SDS011;11230;50.854;6.454;2023-06-01T05:13:38;2.58;;;1.70;;
22127;SDS011;11230;50.854;6.454;2023-06-01T05:18:21;7.97;;;2.05;;
22127;SDS011;11230;50.854;6.454;2023-06-01T05:23:03;2.03;;;1.60;;
22127;SDS011;11230;50.854;6.454;2023-06-01T05:27:44;2.20;;;1.63;;
22127;SDS011;11230;50.854;6.454;2023-06-01T05:32:26;1.98;;;1.73;;
22127;SDS011;11230;50.854;6.454;2023-06-01T05:37:09;3.28;;;2.50;;
22127;SDS011;11230;50.854;6.454;2023-06-01T05:41:50;2.35;;;2.10;;
22127;SDS011;11230;50.854;6.454;2023-06-01T05:46:36;3.97;;;3.55;;
22127;SDS011;11230;50.854;6.454;2023-06-01T05:51:18;5.20;;;3.88;;
22127;SDS011;11230;50.854;6.454;2023-06-01T05:56:08;4.93;;;3.25;;
22127;SDS011;11230;50.854;6.454;2023-06-01T06:00:51;7.43;;;2.90;;
22127;SDS011;11230;50.854;6.454;2023-06-01T06:05:35;3.95;;;2.70;;
22127;SDS011;11230;50.854;6.454;2023-06-01T06:10:16;12.70;;;2.90;;
22127;SDS011;11230;50.854;6.454;2023-06-01T06:15:09;3.65;;;3.05;;
22127;SDS011;11230;50.854;6.454;2023-06-01T06:19:51;10.95;;;3.47;;
22127;SDS011;11230;50.854;6.454;2023-06-01T06:24:32;3.42;;;2.20;;
22127;SDS011;11230;50.854;6.454;2023-06-01T06:29:14;4.55;;;3.15;;
22127;SDS011;11230;50.854;6.454;2023-06-01T06:33:57;6.38;;;2.83;;
22127;SDS011;11230;50.854;6.454;2023-06-01T06:38:38;3.40;;;3.05;;
22127;SDS011;11230;50.854;6.454;2023-06-01T06:43:22;5.07;;;3.92;;
22127;SDS011;11230;50.854;6.454;2023-06-01T06:48:05;8.23;;;3.85;;
22127;SDS011;11230;50.854;6.454;2023-06-01T06:52:51;7.20;;;3.90;;
22127;SDS011;11230;50.854;6.454;2023-06-01T06:57:41;9.00;;;2.53;;
22127;SDS011;11230;50.854;6.454;2023-06-01T07:02:30;4.85;;;3.28;;
22127;SDS011;11230;50.854;6.454;2023-06-01T07:07:11;9.30;;;4.70;;
22127;SDS011;11230;50.854;6.454;2023-06-01T07:12:01;9.68;;;3.72;;
22127;SDS011;11230;50.854;6.454;2023-06-01T07:16:43;7.85;;;3.35;;
22127;SDS011;11230;50.854;6.454;2023-06-01T07:21:25;10.85;;;4.00;;
22127;SDS011;11230;50.854;6.454;2023-06-01T07:26:09;6.70;;;3.92;;
22127;SDS011;11230;50.854;6.454;2023-06-01T07:31:01;8.10;;;4.85;;
22127;SDS011;11230;50.854;6.454;2023-06-01T07:35:42;5.35;;;2.03;;
22127;SDS011;11230;50.854;6.454;2023-06-01T07:40:26;8.75;;;3.90;;
22127;SDS011;11230;50.854;6.454;2023-06-01T07:45:07;10.27;;;5.45;;
22127;SDS011;11230;50.854;6.454;2023-06-01T07:49:52;6.13;;;4.47;;
22127;SDS011;11230;50.854;6.454;2023-06-01T07:54:34;8.23;;;3.70;;
22127;SDS011;11230;50.854;6.454;2023-06-01T07:59:16;9.43;;;3.58;;
22127;SDS011;11230;50.854;6.454;2023-06-01T08:04:00;5.47;;;3.58;;
22127;SDS011;11230;50.854;6.454;2023-06-01T08:13:34;7.05;;;3.03;;
22127;SDS011;11230;50.854;6.454;2023-06-01T08:18:16;6.18;;;4.13;;
22127;SDS011;11230;50.854;6.454;2023-06-01T08:22:59;8.20;;;3.40;;
22127;SDS011;11230;50.854;6.454;2023-06-01T08:27:41;9.40;;;3.92;;
22127;SDS011;11230;50.854;6.454;2023-06-01T08:32:32;6.47;;;4.03;;
22127;SDS011;11230;50.854;6.454;2023-06-01T08:37:18;7.45;;;3.00;;
22127;SDS011;11230;50.854;6.454;2023-06-01T08:42:03;10.90;;;5.93;;
22127;SDS011;11230;50.854;6.454;2023-06-01T08:46:45;12.43;;;4.72;;
22127;SDS011;11230;50.854;6.454;2023-06-01T08:51:28;8.23;;;3.75;;
22127;SDS011;11230;50.854;6.454;2023-06-01T08:56:13;12.98;;;3.58;;
22127;SDS011;11230;50.854;6.454;2023-06-01T09:00:55;9.45;;;4.43;;
22127;SDS011;11230;50.854;6.454;2023-06-01T09:05:38;6.20;;;3.15;;
22127;SDS011;11230;50.854;6.454;2023-06-01T09:10:23;7.18;;;2.78;;
22127;SDS011;11230;50.854;6.454;2023-06-01T09:15:07;4.20;;;2.97;;
22127;SDS011;11230;50.854;6.454;2023-06-01T09:19:50;4.40;;;2.53;;
22127;SDS011;11230;50.854;6.454;2023-06-01T09:24:31;7.90;;;3.10;;
22127;SDS011;11230;50.854;6.454;2023-06-01T09:29:15;5.43;;;2.53;;
22127;SDS011;11230;50.854;6.454;2023-06-01T09:33:58;5.22;;;3.20;;
22127;SDS011;11230;50.854;6.454;2023-06-01T09:38:40;12.45;;;2.85;;
22127;SDS011;11230;50.854;6.454;2023-06-01T09:43:22;2.90;;;2.05;;
22127;SDS011;11230;50.854;6.454;2023-06-01T09:48:17;10.82;;;2.85;;
22127;SDS011;11230;50.854;6.454;2023-06-01T09:52:59;10.80;;;2.97;;
22127;SDS011;11230;50.854;6.454;2023-06-01T09:57:40;4.97;;;2.47;;
22127;SDS011;11230;50.854;6.454;2023-06-01T10:02:24;2.92;;;1.90;;
22127;SDS011;11230;50.854;6.454;2023-06-01T10:07:07;2.65;;;2.20;;
22127;SDS011;11230;50.854;6.454;2023-06-01T10:11:51;2.87;;;2.63;;
22127;SDS011;11230;50.854;6.454;2023-06-01T10:16:34;6.43;;;2.08;;
22127;SDS011;11230;50.854;6.454;2023-06-01T10:21:17;2.03;;;1.90;;
22127;SDS011;11230;50.854;6.454;2023-06-01T10:26:05;4.43;;;1.90;;
22127;SDS011;11230;50.854;6.454;2023-06-01T10:35:51;3.30;;;2.20;;
22127;SDS011;11230;50.854;6.454;2023-06-01T10:40:33;3.63;;;2.15;;
22127;SDS011;11230;50.854;6.454;2023-06-01T10:50:18;4.22;;;1.15;;
22127;SDS011;11230;50.854;6.454;2023-06-01T10:55:19;3.55;;;1.67;;
22127;SDS011;11230;50.854;6.454;2023-06-01T11:10:06;1.65;;;0.93;;
22127;SDS011;11230;50.854;6.454;2023-06-01T11:19:57;0.93;;;0.93;;
22127;SDS011;11230;50.854;6.454;2023-06-01T11:24:38;1.60;;;1.42;;
22127;SDS011;11230;50.854;6.454;2023-06-01T11:29:22;3.13;;;1.48;;
22127;SDS011;11230;50.854;6.454;2023-06-01T11:34:04;4.22;;;1.40;;
22127;SDS011;11230;50.854;6.454;2023-06-01T11:38:45;5.22;;;1.77;;
22127;SDS011;11230;50.854;6.454;2023-06-01T11:43:27;3.15;;;1.63;;
22127;SDS011;11230;50.854;6.454;2023-06-01T11:48:13;1.65;;;1.13;;
22127;SDS011;11230;50.854;6.454;2023-06-01T11:52:55;2.15;;;0.82;;
22127;SDS011;11230;50.854;6.454;2023-06-01T11:57:39;4.78;;;1.48;;
22127;SDS011;11230;50.854;6.454;2023-06-01T12:02:21;0.82;;;0.82;;
22127;SDS011;11230;50.854;6.454;2023-06-01T12:07:06;1.52;;;1.13;;
22127;SDS011;11230;50.854;6.454;2023-06-01T12:11:47;1.02;;;0.68;;
22127;SDS011;11230;50.854;6.454;2023-06-01T12:21:28;1.65;;;0.90;;
22127;SDS011;11230;50.854;6.454;2023-06-01T12:26:10;3.33;;;0.82;;
22127;SDS011;11230;50.854;6.454;2023-06-01T12:31:07;1.17;;;0.88;;
22127;SDS011;11230;50.854;6.454;2023-06-01T12:35:49;0.80;;;0.68;;
22127;SDS011;11230;50.854;6.454;2023-06-01T12:40:30;0.55;;;0.55;;
22127;SDS011;11230;50.854;6.454;2023-06-01T12:45:14;1.75;;;1.05;;
22127;SDS011;11230;50.854;6.454;2023-06-01T12:50:01;1.52;;;1.08;;
22127;SDS011;11230;50.854;6.454;2023-06-01T12:54:43;0.63;;;0.60;;
22127;SDS011;11230;50.854;6.454;2023-06-01T12:59:25;1.23;;;0.77;;
22127;SDS011;11230;50.854;6.454;2023-06-01T13:04:08;1.38;;;0.70;;
22127;SDS011;11230;50.854;6.454;2023-06-01T13:08:49;2.63;;;1.70;;
22127;SDS011;11230;50.854;6.454;2023-06-01T13:13:32;1.95;;;1.13;;
22127;SDS011;11230;50.854;6.454;2023-06-01T13:18:13;3.50;;;1.13;;
22127;SDS011;11230;50.854;6.454;2023-06-01T13:22:57;0.85;;;0.77;;
22127;SDS011;11230;50.854;6.454;2023-06-01T13:27:38;3.75;;;1.67;;
22127;SDS011;11230;50.854;6.454;2023-06-01T13:32:20;0.63;;;0.60;;
22127;SDS011;11230;50.854;6.454;2023-06-01T13:37:02;0.95;;;0.65;;
22127;SDS011;11230;50.854;6.454;2023-06-01T13:41:45;1.65;;;0.75;;
22127;SDS011;11230;50.854;6.454;2023-06-01T13:46:27;2.60;;;0.95;;
22127;SDS011;11230;50.854;6.454;2023-06-01T13:51:09;1.13;;;0.77;;
22127;SDS011;11230;50.854;6.454;2023-06-01T13:55:50;0.95;;;0.85;;
22127;SDS011;11230;50.854;6.454;2023-06-01T14:00:33;0.98;;;0.68;;
22127;SDS011;11230;50.854;6.454;2023-06-01T14:05:14;1.17;;;0.50;;
22127;SDS011;11230;50.854;6.454;2023-06-01T14:09:56;1.63;;;0.95;;
22127;SDS011;11230;50.854;6.454;2023-06-01T14:14:37;1.25;;;0.82;;
22127;SDS011;11230;50.854;6.454;2023-06-01T14:24:17;1.10;;;0.65;;
22127;SDS011;11230;50.854;6.454;2023-06-01T14:28:59;2.20;;;0.70;;
22127;SDS011;11230;50.854;6.454;2023-06-01T14:33:43;0.70;;;0.70;;
22127;SDS011;11230;50.854;6.454;2023-06-01T14:38:25;1.27;;;1.17;;
22127;SDS011;11230;50.854;6.454;2023-06-01T14:43:08;0.60;;;0.50;;
22127;SDS011;11230;50.854;6.454;2023-06-01T14:47:49;1.33;;;0.80;;
22127;SDS011;11230;50.854;6.454;2023-06-01T14:52:31;0.57;;;0.50;;
22127;SDS011;11230;50.854;6.454;2023-06-01T14:57:12;0.50;;;0.50;;
22127;SDS011;11230;50.854;6.454;2023-06-01T15:01:57;0.85;;;0.73;;
22127;SDS011;11230;50.854;6.454;2023-06-01T15:06:41;2.08;;;0.90;;
22127;SDS011;11230;50.854;6.454;2023-06-01T15:11:25;1.30;;;0.80;;
22127;SDS011;11230;50.854;6.454;2023-06-01T15:16:19;0.45;;;0.38;;
22127;SDS011;11230;50.854;6.454;2023-06-01T15:21:06;1.60;;;1.48;;
22127;SDS011;11230;50.854;6.454;2023-06-01T15:25:57;1.10;;;0.63;;
22127;SDS011;11230;50.854;6.454;2023-06-01T15:35:27;0.65;;;0.63;;
22127;SDS011;11230;50.854;6.454;2023-06-01T15:40:12;0.73;;;0.57;;
22127;SDS011;11230;50.854;6.454;2023-06-01T15:45:45;2.40;;;1.05;;
22127;SDS011;11230;50.854;6.454;2023-06-01T15:50:17;1.10;;;0.45;;
22127;SDS011;11230;50.854;6.454;2023-06-01T15:55:00;0.57;;;0.32;;
22127;SDS011;11230;50.854;6.454;2023-06-01T15:59:43;1.48;;;0.65;;
22127;SDS011;11230;50.854;6.454;2023-06-01T16:04:27;1.58;;;0.95;;
22127;SDS011;11230;50.854;6.454;2023-06-01T16:09:08;0.55;;;0.30;;
22127;SDS011;11230;50.854;6.454;2023-06-01T16:13:50;0.50;;;0.40;;
22127;SDS011;11230;50.854;6.454;2023-06-01T16:18:35;1.23;;;0.82;;
22127;SDS011;11230;50.854;6.454;2023-06-01T16:23:16;0.47;;;0.47;;
22127;SDS011;11230;50.854;6.454;2023-06-01T16:28:00;1.25;;;0.75;;
22127;SDS011;11230;50.854;6.454;2023-06-01T16:32:42;0.40;;;0.40;;
22127;SDS011;11230;50.854;6.454;2023-06-01T16:37:24;3.60;;;1.77;;
22127;SDS011;11230;50.854;6.454;2023-06-01T16:42:06;1.20;;;0.82;;
22127;SDS011;11230;50.854;6.454;2023-06-01T16:46:47;0.90;;;0.63;;
22127;SDS011;11230;50.854;6.454;2023-06-01T16:51:30;1.08;;;0.95;;
22127;SDS011;11230;50.854;6.454;2023-06-01T16:56:17;1.88;;;1.30;;
22127;SDS011;11230;50.854;6.454;2023-06-01T17:00:58;12.43;;;0.93;;
22127;SDS011;11230;50.854;6.454;2023-06-01T17:05:40;0.47;;;0.45;;
22127;SDS011;11230;50.854;6.454;2023-06-01T17:10:23;0.73;;;0.50;;
22127;SDS011;11230;50.854;6.454;2023-06-01T17:15:07;1.70;;;0.52;;
22127;SDS011;11230;50.854;6.454;2023-06-01T17:19:52;1.48;;;0.55;;
22127;SDS011;11230;50.854;6.454;2023-06-01T17:29:16;1.75;;;1.10;;
22127;SDS011;11230;50.854;6.454;2023-06-01T17:34:00;0.65;;;0.52;;
22127;SDS011;11230;50.854;6.454;2023-06-01T17:38:42;1.08;;;0.65;;
22127;SDS011;11230;50.854;6.454;2023-06-01T17:48:33;0.88;;;0.70;;
22127;SDS011;11230;50.854;6.454;2023-06-01T17:53:16;0.63;;;0.47;;
22127;SDS011;11230;50.854;6.454;2023-06-01T17:57:57;0.65;;;0.38;;
22127;SDS011;11230;50.854;6.454;2023-06-01T18:02:39;0.68;;;0.50;;
22127;SDS011;11230;50.854;6.454;2023-06-01T18:07:20;1.55;;;0.80;;
22127;SDS011;11230;50.854;6.454;2023-06-01T18:12:06;1.17;;;0.55;;
22127;SDS011;11230;50.854;6.454;2023-06-01T18:21:31;0.28;;;0.20;;
22127;SDS011;11230;50.854;6.454;2023-06-01T18:26:13;0.45;;;0.45;;
22127;SDS011;11230;50.854;6.454;2023-06-01T18:31:03;0.50;;;0.50;;
22127;SDS011;11230;50.854;6.454;2023-06-01T18:35:49;5.47;;;0.60;;
22127;SDS011;11230;50.854;6.454;2023-06-01T18:40:48;0.98;;;0.35;;
22127;SDS011;11230;50.854;6.454;2023-06-01T18:46:13;0.68;;;0.68;;
22127;SDS011;11230;50.854;6.454;2023-06-01T18:51:00;0.30;;;0.30;;
22127;SDS011;11230;50.854;6.454;2023-06-01T18:55:41;0.40;;;0.40;;
22127;SDS011;11230;50.854;6.454;2023-06-01T19:00:25;0.55;;;0.52;;
22127;SDS011;11230;50.854;6.454;2023-06-01T19:05:08;9.70;;;0.40;;
22127;SDS011;11230;50.854;6.454;2023-06-01T19:09:51;1.25;;;1.00;;
22127;SDS011;11230;50.854;6.454;2023-06-01T19:14:43;1.77;;;0.50;;
22127;SDS011;11230;50.854;6.454;2023-06-01T19:19:25;0.70;;;0.70;;
22127;SDS011;11230;50.854;6.454;2023-06-01T19:24:08;0.73;;;0.63;;
22127;SDS011;11230;50.854;6.454;2023-06-01T19:33:35;1.30;;;0.85;;
22127;SDS011;11230;50.854;6.454;2023-06-01T19:38:17;0.80;;;0.75;;
22127;SDS011;11230;50.854;6.454;2023-06-01T19:42:58;0.30;;;0.30;;
22127;SDS011;11230;50.854;6.454;2023-06-01T19:47:46;1.98;;;0.90;;
22127;SDS011;11230;50.854;6.454;2023-06-01T19:52:32;0.57;;;0.55;;
22127;SDS011;11230;50.854;6.454;2023-06-01T19:57:19;1.55;;;0.75;;
22127;SDS011;11230;50.854;6.454;2023-06-01T20:02:02;0.63;;;0.63;;
22127;SDS011;11230;50.854;6.454;2023-06-01T20:06:45;0.30;;;0.28;;
22127;SDS011;11230;50.854;6.454;2023-06-01T20:11:28;2.47;;;0.70;;
22127;SDS011;11230;50.854;6.454;2023-06-01T20:16:13;4.97;;;1.10;;
22127;SDS011;11230;50.854;6.454;2023-06-01T20:20:54;1.65;;;0.60;;
22127;SDS011;11230;50.854;6.454;2023-06-01T20:25:38;0.35;;;0.32;;
22127;SDS011;11230;50.854;6.454;2023-06-01T20:35:29;0.82;;;0.52;;
22127;SDS011;11230;50.854;6.454;2023-06-01T20:40:11;1.55;;;0.75;;
22127;SDS011;11230;50.854;6.454;2023-06-01T20:44:54;0.85;;;0.70;;
22127;SDS011;11230;50.854;6.454;2023-06-01T20:49:35;2.55;;;1.48;;
22127;SDS011;11230;50.854;6.454;2023-06-01T20:54:18;3.63;;;0.68;;
22127;SDS011;11230;50.854;6.454;2023-06-01T20:59:00;0.30;;;0.30;;
22127;SDS011;11230;50.854;6.454;2023-06-01T21:03:45;0.95;;;0.73;;
22127;SDS011;11230;50.854;6.454;2023-06-01T21:08:26;1.88;;;0.55;;
22127;SDS011;11230;50.854;6.454;2023-06-01T21:13:09;3.03;;;0.75;;
22127;SDS011;11230;50.854;6.454;2023-06-01T21:17:53;1.03;;;0.50;;
22127;SDS011;11230;50.854;6.454;2023-06-01T21:22:34;0.50;;;0.50;;
22127;SDS011;11230;50.854;6.454;2023-06-01T21:27:15;0.35;;;0.32;;
22127;SDS011;11230;50.854;6.454;2023-06-01T21:31:58;0.40;;;0.40;;
22127;SDS011;11230;50.854;6.454;2023-06-01T21:36:41;0.98;;;0.88;;
22127;SDS011;11230;50.854;6.454;2023-06-01T21:41:22;0.63;;;0.63;;
22127;SDS011;11230;50.854;6.454;2023-06-01T21:46:05;2.33;;;1.27;;
22127;SDS011;11230;50.854;6.454;2023-06-01T21:50:51;1.03;;;0.77;;
22127;SDS011;11230;50.854;6.454;2023-06-01T21:55:33;2.83;;;0.50;;
22127;SDS011;11230;50.854;6.454;2023-06-01T22:00:17;8.75;;;1.77;;
22127;SDS011;11230;50.854;6.454;2023-06-01T22:04:58;0.40;;;0.40;;
22127;SDS011;11230;50.854;6.454;2023-06-01T22:09:46;2.45;;;0.50;;
22127;SDS011;11230;50.854;6.454;2023-06-01T22:14:27;0.30;;;0.30;;
22127;SDS011;11230;50.854;6.454;2023-06-01T22:19:09;2.50;;;0.88;;
22127;SDS011;11230;50.854;6.454;2023-06-01T22:23:50;0.63;;;0.63;;
22127;SDS011;11230;50.854;6.454;2023-06-01T22:28:34;4.80;;;0.98;;
22127;SDS011;11230;50.854;6.454;2023-06-01T22:33:15;0.50;;;0.50;;
22127;SDS011;11230;50.854;6.454;2023-06-01T22:37:57;0.73;;;0.73;;
22127;SDS011;11230;50.854;6.454;2023-06-01T22:42:39;0.22;;;0.22;;
22127;SDS011;11230;50.854;6.454;2023-06-01T22:47:22;0.30;;;0.30;;
22127;SDS011;11230;50.854;6.454;2023-06-01T22:52:03;0.55;;;0.55;;
22127;SDS011;11230;50.854;6.454;2023-06-01T22:56:45;0.55;;;0.47;;
22127;SDS011;11230;50.854;6.454;2023-06-01T23:01:27;0.57;;;0.57;;
22127;SDS011;11230;50.854;6.454;2023-06-01T23:06:11;0.40;;;0.38;;
22127;SDS011;11230;50.854;6.454;2023-06-01T23:10:53;1.35;;;0.82;;
22127;SDS011;11230;50.854;6.454;2023-06-01T23:15:35;0.30;;;0.30;;
22127;SDS011;11230;50.854;6.454;2023-06-01T23:20:19;0.60;;;0.57;;
22127;SDS011;11230;50.854;6.454;2023-06-01T23:25:02;0.80;;;0.50;;
22127;SDS011;11230;50.854;6.454;2023-06-01T23:29:43;1.42;;;0.35;;
22127;SDS011;11230;50.854;6.454;2023-06-01T23:34:27;0.55;;;0.55;;
22127;SDS011;11230;50.854;6.454;2023-06-01T23:39:10;2.05;;;0.45;;
22127;SDS011;11230;50.854;6.454;2023-06-01T23:43:53;0.38;;;0.38;;
22127;SDS011;11230;50.854;6.454;2023-06-01T23:48:39;0.90;;;0.90;;
22127;SDS011;11230;50.854;6.454;2023-06-01T23:53:21;0.15;;;0.15;;
22127;SDS011;11230;50.854;6.454;2023-06-01T23:58:03;7.88;;;0.85;;
